sensor_id;sensor_type;location;lat;lon;timestamp;P1;durP1;ratioP1;P2;durP2;ratioP2
80201;SDS011;69521;54.454;9.928;2024-02-14T00:00:26;11.87;;;7.87;;
80201;SDS011;69521;54.454;9.928;2024-02-14T00:02:51;13.13;;;8.35;;
80201;SDS011;69521;54.454;9.928;2024-02-14T00:05:17;17.65;;;8.60;;
80201;SDS011;69521;54.454;9.928;2024-02-14T00:07:42;16.23;;;9.30;;
80201;SDS011;69521;54.454;9.928;2024-02-14T00:10:08;18.38;;;9.73;;
80201;SDS011;69521;54.454;9.928;2024-02-14T00:12:34;18.45;;;8.25;;
80201;SDS011;69521;54.454;9.928;2024-02-14T00:15:03;19.88;;;9.07;;
80201;SDS011;69521;54.454;9.928;2024-02-14T00:17:31;19.17;;;9.15;;
80201;SDS011;69521;54.454;9.928;2024-02-14T00:19:56;17.48;;;8.80;;
80201;SDS011;69521;54.454;9.928;2024-02-14T00:22:21;18.10;;;8.80;;
80201;SDS011;69521;54.454;9.928;2024-02-14T00:24:47;13.73;;;8.70;;
80201;SDS011;69521;54.454;9.928;2024-02-14T00:27:12;14.77;;;8.43;;
80201;SDS011;69521;54.454;9.928;2024-02-14T00:29:39;15.50;;;8.57;;
80201;SDS011;69521;54.454;9.928;2024-02-14T00:32:05;15.65;;;8.48;;
80201;SDS011;69521;54.454;9.928;2024-02-14T00:34:30;18.17;;;9.05;;
80201;SDS011;69521;54.454;9.928;2024-02-14T00:36:56;18.13;;;8.90;;
80201;SDS011;69521;54.454;9.928;2024-02-14T00:39:21;19.83;;;8.37;;
80201;SDS011;69521;54.454;9.928;2024-02-14T00:41:46;13.10;;;7.68;;
80201;SDS011;69521;54.454;9.928;2024-02-14T00:44:12;16.58;;;8.50;;
80201;SDS011;69521;54.454;9.928;2024-02-14T00:46:38;17.05;;;8.13;;
80201;SDS011;69521;54.454;9.928;2024-02-14T00:49:03;13.37;;;7.70;;
80201;SDS011;69521;54.454;9.928;2024-02-14T00:51:29;16.93;;;8.57;;
80201;SDS011;69521;54.454;9.928;2024-02-14T00:53:54;15.98;;;9.10;;
80201;SDS011;69521;54.454;9.928;2024-02-14T00:56:19;16.92;;;8.05;;
80201;SDS011;69521;54.454;9.928;2024-02-14T00:58:45;18.73;;;8.07;;
80201;SDS011;69521;54.454;9.928;2024-02-14T01:01:10;15.57;;;8.05;;
80201;SDS011;69521;54.454;9.928;2024-02-14T01:03:37;15.40;;;7.88;;
80201;SDS011;69521;54.454;9.928;2024-02-14T01:06:02;12.85;;;7.78;;
80201;SDS011;69521;54.454;9.928;2024-02-14T01:08:28;17.83;;;8.70;;
80201;SDS011;69521;54.454;9.928;2024-02-14T01:10:54;17.70;;;9.07;;
80201;SDS011;69521;54.454;9.928;2024-02-14T01:13:19;15.82;;;9.00;;
80201;SDS011;69521;54.454;9.928;2024-02-14T01:15:44;19.45;;;9.00;;
80201;SDS011;69521;54.454;9.928;2024-02-14T01:18:09;17.60;;;9.00;;
80201;SDS011;69521;54.454;9.928;2024-02-14T01:20:35;17.50;;;9.30;;
80201;SDS011;69521;54.454;9.928;2024-02-14T01:23:00;16.55;;;8.90;;
80201;SDS011;69521;54.454;9.928;2024-02-14T01:25:26;16.20;;;9.37;;
80201;SDS011;69521;54.454;9.928;2024-02-14T01:27:51;12.90;;;8.85;;
80201;SDS011;69521;54.454;9.928;2024-02-14T01:30:17;19.90;;;9.23;;
80201;SDS011;69521;54.454;9.928;2024-02-14T01:32:43;16.40;;;9.18;;
80201;SDS011;69521;54.454;9.928;2024-02-14T01:35:08;17.25;;;9.27;;
80201;SDS011;69521;54.454;9.928;2024-02-14T01:37:34;14.95;;;9.32;;
80201;SDS011;69521;54.454;9.928;2024-02-14T01:40:00;19.90;;;9.90;;
80201;SDS011;69521;54.454;9.928;2024-02-14T01:42:25;16.85;;;8.73;;
80201;SDS011;69521;54.454;9.928;2024-02-14T01:44:52;14.25;;;8.25;;
80201;SDS011;69521;54.454;9.928;2024-02-14T01:47:19;16.75;;;8.52;;
80201;SDS011;69521;54.454;9.928;2024-02-14T01:49:45;17.40;;;8.55;;
80201;SDS011;69521;54.454;9.928;2024-02-14T01:52:12;13.77;;;8.18;;
80201;SDS011;69521;54.454;9.928;2024-02-14T01:54:38;15.63;;;8.80;;
80201;SDS011;69521;54.454;9.928;2024-02-14T01:57:04;17.73;;;9.18;;
80201;SDS011;69521;54.454;9.928;2024-02-14T01:59:31;11.43;;;7.43;;
80201;SDS011;69521;54.454;9.928;2024-02-14T02:01:59;19.42;;;9.10;;
80201;SDS011;69521;54.454;9.928;2024-02-14T02:04:25;14.25;;;7.40;;
80201;SDS011;69521;54.454;9.928;2024-02-14T02:06:50;18.83;;;8.95;;
80201;SDS011;69521;54.454;9.928;2024-02-14T02:09:21;19.50;;;8.50;;
80201;SDS011;69521;54.454;9.928;2024-02-14T02:11:50;15.00;;;8.50;;
80201;SDS011;69521;54.454;9.928;2024-02-14T02:14:18;15.35;;;8.05;;
80201;SDS011;69521;54.454;9.928;2024-02-14T02:16:44;11.70;;;8.32;;
80201;SDS011;69521;54.454;9.928;2024-02-14T02:19:10;13.45;;;7.47;;
80201;SDS011;69521;54.454;9.928;2024-02-14T02:21:36;19.73;;;7.73;;
80201;SDS011;69521;54.454;9.928;2024-02-14T02:24:01;14.23;;;8.43;;
80201;SDS011;69521;54.454;9.928;2024-02-14T02:26:27;15.02;;;7.40;;
80201;SDS011;69521;54.454;9.928;2024-02-14T02:28:52;15.60;;;7.82;;
80201;SDS011;69521;54.454;9.928;2024-02-14T02:31:18;14.40;;;8.13;;
80201;SDS011;69521;54.454;9.928;2024-02-14T02:33:45;15.85;;;8.27;;
80201;SDS011;69521;54.454;9.928;2024-02-14T02:36:11;15.55;;;7.90;;
80201;SDS011;69521;54.454;9.928;2024-02-14T02:38:36;14.87;;;7.63;;
80201;SDS011;69521;54.454;9.928;2024-02-14T02:41:05;11.52;;;7.40;;
80201;SDS011;69521;54.454;9.928;2024-02-14T02:43:34;16.02;;;7.65;;
80201;SDS011;69521;54.454;9.928;2024-02-14T02:46:00;18.48;;;8.63;;
80201;SDS011;69521;54.454;9.928;2024-02-14T02:48:25;12.85;;;7.18;;
80201;SDS011;69521;54.454;9.928;2024-02-14T02:50:51;16.90;;;6.93;;
80201;SDS011;69521;54.454;9.928;2024-02-14T02:53:17;15.60;;;7.93;;
80201;SDS011;69521;54.454;9.928;2024-02-14T02:55:42;13.70;;;7.80;;
80201;SDS011;69521;54.454;9.928;2024-02-14T02:58:08;16.90;;;7.40;;
80201;SDS011;69521;54.454;9.928;2024-02-14T03:00:33;12.20;;;6.65;;
80201;SDS011;69521;54.454;9.928;2024-02-14T03:02:59;13.70;;;7.63;;
80201;SDS011;69521;54.454;9.928;2024-02-14T03:05:24;10.57;;;7.60;;
80201;SDS011;69521;54.454;9.928;2024-02-14T03:07:50;11.60;;;6.97;;
80201;SDS011;69521;54.454;9.928;2024-02-14T03:10:18;11.90;;;7.40;;
80201;SDS011;69521;54.454;9.928;2024-02-14T03:12:47;12.20;;;7.35;;
80201;SDS011;69521;54.454;9.928;2024-02-14T03:15:13;12.63;;;6.95;;
80201;SDS011;69521;54.454;9.928;2024-02-14T03:17:39;12.52;;;7.30;;
80201;SDS011;69521;54.454;9.928;2024-02-14T03:20:05;14.02;;;7.22;;
80201;SDS011;69521;54.454;9.928;2024-02-14T03:22:43;14.13;;;7.22;;
80201;SDS011;69521;54.454;9.928;2024-02-14T03:25:12;13.07;;;6.72;;
80201;SDS011;69521;54.454;9.928;2024-02-14T03:30:07;10.47;;;6.17;;
80201;SDS011;69521;54.454;9.928;2024-02-14T03:32:32;17.65;;;7.53;;
80201;SDS011;69521;54.454;9.928;2024-02-14T03:34:58;12.20;;;6.70;;
80201;SDS011;69521;54.454;9.928;2024-02-14T03:37:25;10.82;;;6.70;;
80201;SDS011;69521;54.454;9.928;2024-02-14T03:39:51;12.77;;;7.22;;
80201;SDS011;69521;54.454;9.928;2024-02-14T03:42:16;14.48;;;7.65;;
80201;SDS011;69521;54.454;9.928;2024-02-14T03:44:41;12.57;;;6.72;;
80201;SDS011;69521;54.454;9.928;2024-02-14T03:47:07;11.23;;;6.20;;
80201;SDS011;69521;54.454;9.928;2024-02-14T03:49:32;15.52;;;8.02;;
80201;SDS011;69521;54.454;9.928;2024-02-14T03:51:58;10.27;;;6.37;;
80201;SDS011;69521;54.454;9.928;2024-02-14T03:54:24;11.93;;;6.82;;
80201;SDS011;69521;54.454;9.928;2024-02-14T03:56:49;15.00;;;7.63;;
80201;SDS011;69521;54.454;9.928;2024-02-14T03:59:16;14.15;;;7.78;;
80201;SDS011;69521;54.454;9.928;2024-02-14T04:01:45;14.75;;;7.38;;
80201;SDS011;69521;54.454;9.928;2024-02-14T04:04:11;16.17;;;7.65;;
80201;SDS011;69521;54.454;9.928;2024-02-14T04:06:36;11.60;;;7.32;;
80201;SDS011;69521;54.454;9.928;2024-02-14T04:09:02;11.20;;;7.32;;
80201;SDS011;69521;54.454;9.928;2024-02-14T04:11:27;14.00;;;7.45;;
80201;SDS011;69521;54.454;9.928;2024-02-14T04:13:53;12.13;;;7.13;;
80201;SDS011;69521;54.454;9.928;2024-02-14T04:16:19;11.55;;;6.60;;
80201;SDS011;69521;54.454;9.928;2024-02-14T04:18:45;13.60;;;7.65;;
80201;SDS011;69521;54.454;9.928;2024-02-14T04:21:10;12.80;;;7.23;;
80201;SDS011;69521;54.454;9.928;2024-02-14T04:23:36;14.27;;;8.05;;
80201;SDS011;69521;54.454;9.928;2024-02-14T04:26:01;18.02;;;7.65;;
80201;SDS011;69521;54.454;9.928;2024-02-14T04:28:26;13.07;;;7.20;;
80201;SDS011;69521;54.454;9.928;2024-02-14T04:30:52;13.93;;;8.35;;
80201;SDS011;69521;54.454;9.928;2024-02-14T04:33:18;14.35;;;7.80;;
80201;SDS011;69521;54.454;9.928;2024-02-14T04:35:43;13.32;;;7.63;;
80201;SDS011;69521;54.454;9.928;2024-02-14T04:38:09;15.73;;;8.07;;
80201;SDS011;69521;54.454;9.928;2024-02-14T04:40:34;16.38;;;7.95;;
80201;SDS011;69521;54.454;9.928;2024-02-14T04:43:00;13.60;;;7.97;;
80201;SDS011;69521;54.454;9.928;2024-02-14T04:45:25;15.50;;;7.75;;
80201;SDS011;69521;54.454;9.928;2024-02-14T04:47:51;17.95;;;7.70;;
80201;SDS011;69521;54.454;9.928;2024-02-14T04:50:16;16.20;;;8.40;;
80201;SDS011;69521;54.454;9.928;2024-02-14T04:52:43;15.85;;;8.38;;
80201;SDS011;69521;54.454;9.928;2024-02-14T04:55:09;15.80;;;8.40;;
80201;SDS011;69521;54.454;9.928;2024-02-14T04:57:34;15.77;;;8.45;;
80201;SDS011;69521;54.454;9.928;2024-02-14T05:00:02;15.88;;;8.73;;
80201;SDS011;69521;54.454;9.928;2024-02-14T05:02:29;16.50;;;8.70;;
80201;SDS011;69521;54.454;9.928;2024-02-14T05:04:55;16.58;;;8.82;;
80201;SDS011;69521;54.454;9.928;2024-02-14T05:07:20;15.07;;;8.43;;
80201;SDS011;69521;54.454;9.928;2024-02-14T05:09:45;18.90;;;9.65;;
80201;SDS011;69521;54.454;9.928;2024-02-14T05:12:13;16.33;;;8.63;;
80201;SDS011;69521;54.454;9.928;2024-02-14T05:14:38;22.77;;;10.00;;
80201;SDS011;69521;54.454;9.928;2024-02-14T05:17:05;18.80;;;9.57;;
80201;SDS011;69521;54.454;9.928;2024-02-14T05:19:30;21.13;;;10.10;;
80201;SDS011;69521;54.454;9.928;2024-02-14T05:21:55;15.93;;;9.37;;
80201;SDS011;69521;54.454;9.928;2024-02-14T05:24:21;18.52;;;9.68;;
80201;SDS011;69521;54.454;9.928;2024-02-14T05:26:46;19.63;;;10.10;;
80201;SDS011;69521;54.454;9.928;2024-02-14T05:29:11;18.35;;;9.93;;
80201;SDS011;69521;54.454;9.928;2024-02-14T05:31:43;20.13;;;10.90;;
80201;SDS011;69521;54.454;9.928;2024-02-14T05:34:10;23.85;;;10.57;;
80201;SDS011;69521;54.454;9.928;2024-02-14T05:36:35;19.35;;;10.02;;
80201;SDS011;69521;54.454;9.928;2024-02-14T05:39:01;18.17;;;10.23;;
80201;SDS011;69521;54.454;9.928;2024-02-14T05:41:27;17.88;;;9.57;;
80201;SDS011;69521;54.454;9.928;2024-02-14T05:43:52;17.47;;;9.87;;
80201;SDS011;69521;54.454;9.928;2024-02-14T05:46:17;18.50;;;10.00;;
80201;SDS011;69521;54.454;9.928;2024-02-14T05:48:45;21.73;;;10.80;;
80201;SDS011;69521;54.454;9.928;2024-02-14T05:51:11;19.38;;;9.88;;
80201;SDS011;69521;54.454;9.928;2024-02-14T05:53:36;19.70;;;10.70;;
80201;SDS011;69521;54.454;9.928;2024-02-14T05:56:01;18.97;;;10.03;;
80201;SDS011;69521;54.454;9.928;2024-02-14T05:58:26;20.33;;;9.90;;
80201;SDS011;69521;54.454;9.928;2024-02-14T06:00:53;18.58;;;10.23;;
80201;SDS011;69521;54.454;9.928;2024-02-14T06:03:20;21.60;;;10.88;;
80201;SDS011;69521;54.454;9.928;2024-02-14T06:05:46;22.15;;;10.40;;
80201;SDS011;69521;54.454;9.928;2024-02-14T06:08:11;18.63;;;9.18;;
80201;SDS011;69521;54.454;9.928;2024-02-14T06:10:37;17.45;;;9.25;;
80201;SDS011;69521;54.454;9.928;2024-02-14T06:13:03;18.83;;;9.00;;
80201;SDS011;69521;54.454;9.928;2024-02-14T06:15:29;16.17;;;9.77;;
80201;SDS011;69521;54.454;9.928;2024-02-14T06:17:54;19.63;;;9.57;;
80201;SDS011;69521;54.454;9.928;2024-02-14T06:20:20;22.08;;;10.73;;
80201;SDS011;69521;54.454;9.928;2024-02-14T06:22:45;16.75;;;9.27;;
80201;SDS011;69521;54.454;9.928;2024-02-14T06:25:11;17.10;;;10.10;;
80201;SDS011;69521;54.454;9.928;2024-02-14T06:27:36;16.47;;;9.47;;
80201;SDS011;69521;54.454;9.928;2024-02-14T06:30:02;24.02;;;9.90;;
80201;SDS011;69521;54.454;9.928;2024-02-14T06:32:28;19.38;;;9.75;;
80201;SDS011;69521;54.454;9.928;2024-02-14T06:34:53;20.23;;;9.87;;
80201;SDS011;69521;54.454;9.928;2024-02-14T06:37:19;16.75;;;9.77;;
80201;SDS011;69521;54.454;9.928;2024-02-14T06:39:45;16.92;;;8.40;;
80201;SDS011;69521;54.454;9.928;2024-02-14T06:42:10;20.97;;;9.60;;
80201;SDS011;69521;54.454;9.928;2024-02-14T06:44:35;16.93;;;10.07;;
80201;SDS011;69521;54.454;9.928;2024-02-14T06:47:00;17.17;;;10.03;;
80201;SDS011;69521;54.454;9.928;2024-02-14T06:49:26;14.88;;;8.82;;
80201;SDS011;69521;54.454;9.928;2024-02-14T06:51:51;17.27;;;8.43;;
80201;SDS011;69521;54.454;9.928;2024-02-14T06:54:16;17.37;;;8.77;;
80201;SDS011;69521;54.454;9.928;2024-02-14T06:56:44;16.58;;;8.88;;
80201;SDS011;69521;54.454;9.928;2024-02-14T06:59:10;20.15;;;8.90;;
80201;SDS011;69521;54.454;9.928;2024-02-14T07:01:35;16.83;;;8.87;;
80201;SDS011;69521;54.454;9.928;2024-02-14T07:04:00;17.10;;;9.37;;
80201;SDS011;69521;54.454;9.928;2024-02-14T07:06:26;17.15;;;8.68;;
80201;SDS011;69521;54.454;9.928;2024-02-14T07:08:52;15.27;;;8.02;;
80201;SDS011;69521;54.454;9.928;2024-02-14T07:11:18;18.17;;;8.88;;
80201;SDS011;69521;54.454;9.928;2024-02-14T07:13:43;13.57;;;7.90;;
80201;SDS011;69521;54.454;9.928;2024-02-14T07:16:08;14.40;;;7.95;;
80201;SDS011;69521;54.454;9.928;2024-02-14T07:18:34;15.55;;;8.40;;
80201;SDS011;69521;54.454;9.928;2024-02-14T07:20:59;13.48;;;7.57;;
80201;SDS011;69521;54.454;9.928;2024-02-14T07:23:26;18.00;;;8.32;;
80201;SDS011;69521;54.454;9.928;2024-02-14T07:25:52;16.98;;;8.48;;
80201;SDS011;69521;54.454;9.928;2024-02-14T07:28:17;13.13;;;7.43;;
80201;SDS011;69521;54.454;9.928;2024-02-14T07:30:43;14.02;;;8.00;;
80201;SDS011;69521;54.454;9.928;2024-02-14T07:33:09;12.45;;;7.35;;
80201;SDS011;69521;54.454;9.928;2024-02-14T07:35:34;14.52;;;7.93;;
80201;SDS011;69521;54.454;9.928;2024-02-14T07:38:00;12.63;;;7.85;;
80201;SDS011;69521;54.454;9.928;2024-02-14T07:40:26;13.33;;;7.63;;
80201;SDS011;69521;54.454;9.928;2024-02-14T07:42:52;13.65;;;7.63;;
80201;SDS011;69521;54.454;9.928;2024-02-14T07:45:17;12.32;;;7.63;;
80201;SDS011;69521;54.454;9.928;2024-02-14T07:47:43;16.20;;;7.63;;
80201;SDS011;69521;54.454;9.928;2024-02-14T07:50:08;15.57;;;8.20;;
80201;SDS011;69521;54.454;9.928;2024-02-14T07:52:34;14.43;;;6.78;;
80201;SDS011;69521;54.454;9.928;2024-02-14T07:55:01;11.38;;;7.32;;
80201;SDS011;69521;54.454;9.928;2024-02-14T07:57:26;13.27;;;7.45;;
80201;SDS011;69521;54.454;9.928;2024-02-14T07:59:52;11.70;;;7.22;;
80201;SDS011;69521;54.454;9.928;2024-02-14T08:02:18;14.52;;;7.93;;
80201;SDS011;69521;54.454;9.928;2024-02-14T08:04:44;12.45;;;6.90;;
80201;SDS011;69521;54.454;9.928;2024-02-14T08:07:10;13.13;;;7.28;;
80201;SDS011;69521;54.454;9.928;2024-02-14T08:09:36;13.07;;;7.50;;
80201;SDS011;69521;54.454;9.928;2024-02-14T08:12:01;12.43;;;6.40;;
80201;SDS011;69521;54.454;9.928;2024-02-14T08:14:27;12.35;;;7.05;;
80201;SDS011;69521;54.454;9.928;2024-02-14T08:16:52;13.90;;;6.93;;
80201;SDS011;69521;54.454;9.928;2024-02-14T08:19:18;15.32;;;7.32;;
80201;SDS011;69521;54.454;9.928;2024-02-14T08:21:43;15.43;;;7.55;;
80201;SDS011;69521;54.454;9.928;2024-02-14T08:24:09;15.27;;;7.35;;
80201;SDS011;69521;54.454;9.928;2024-02-14T08:26:34;12.15;;;7.40;;
80201;SDS011;69521;54.454;9.928;2024-02-14T08:29:00;14.60;;;7.75;;
80201;SDS011;69521;54.454;9.928;2024-02-14T08:31:25;15.48;;;7.75;;
80201;SDS011;69521;54.454;9.928;2024-02-14T08:33:50;14.20;;;7.80;;
80201;SDS011;69521;54.454;9.928;2024-02-14T08:36:16;14.03;;;7.93;;
80201;SDS011;69521;54.454;9.928;2024-02-14T08:38:43;11.27;;;6.97;;
80201;SDS011;69521;54.454;9.928;2024-02-14T08:41:09;13.07;;;7.77;;
80201;SDS011;69521;54.454;9.928;2024-02-14T08:43:34;15.63;;;8.13;;
80201;SDS011;69521;54.454;9.928;2024-02-14T08:45:59;13.83;;;7.80;;
80201;SDS011;69521;54.454;9.928;2024-02-14T08:48:25;15.65;;;7.50;;
80201;SDS011;69521;54.454;9.928;2024-02-14T08:50:52;12.38;;;7.97;;
80201;SDS011;69521;54.454;9.928;2024-02-14T08:53:17;13.15;;;7.95;;
80201;SDS011;69521;54.454;9.928;2024-02-14T08:55:43;14.90;;;8.05;;
80201;SDS011;69521;54.454;9.928;2024-02-14T08:58:11;14.95;;;8.88;;
80201;SDS011;69521;54.454;9.928;2024-02-14T09:00:36;13.75;;;7.07;;
80201;SDS011;69521;54.454;9.928;2024-02-14T09:03:03;15.02;;;7.97;;
80201;SDS011;69521;54.454;9.928;2024-02-14T09:05:29;15.93;;;8.32;;
80201;SDS011;69521;54.454;9.928;2024-02-14T09:07:54;14.13;;;7.90;;
80201;SDS011;69521;54.454;9.928;2024-02-14T09:10:20;10.90;;;6.60;;
80201;SDS011;69521;54.454;9.928;2024-02-14T09:12:46;13.27;;;8.05;;
80201;SDS011;69521;54.454;9.928;2024-02-14T09:15:12;11.75;;;7.47;;
80201;SDS011;69521;54.454;9.928;2024-02-14T09:17:38;13.95;;;8.38;;
80201;SDS011;69521;54.454;9.928;2024-02-14T09:20:05;12.95;;;7.60;;
80201;SDS011;69521;54.454;9.928;2024-02-14T09:22:34;12.95;;;7.15;;
80201;SDS011;69521;54.454;9.928;2024-02-14T09:25:00;14.23;;;7.93;;
80201;SDS011;69521;54.454;9.928;2024-02-14T09:27:26;12.88;;;7.30;;
80201;SDS011;69521;54.454;9.928;2024-02-14T09:29:51;9.82;;;6.78;;
80201;SDS011;69521;54.454;9.928;2024-02-14T09:32:16;13.35;;;7.30;;
80201;SDS011;69521;54.454;9.928;2024-02-14T09:34:42;12.25;;;7.07;;
80201;SDS011;69521;54.454;9.928;2024-02-14T09:37:07;14.03;;;7.97;;
80201;SDS011;69521;54.454;9.928;2024-02-14T09:39:34;12.50;;;7.63;;
80201;SDS011;69521;54.454;9.928;2024-02-14T09:42:02;14.98;;;7.95;;
80201;SDS011;69521;54.454;9.928;2024-02-14T09:44:37;13.18;;;7.47;;
80201;SDS011;69521;54.454;9.928;2024-02-14T09:47:05;12.27;;;6.90;;
80201;SDS011;69521;54.454;9.928;2024-02-14T09:49:32;11.93;;;7.15;;
80201;SDS011;69521;54.454;9.928;2024-02-14T09:52:01;16.13;;;8.23;;
80201;SDS011;69521;54.454;9.928;2024-02-14T09:54:28;12.55;;;7.57;;
80201;SDS011;69521;54.454;9.928;2024-02-14T09:56:55;11.98;;;7.40;;
80201;SDS011;69521;54.454;9.928;2024-02-14T09:59:22;12.88;;;8.05;;
80201;SDS011;69521;54.454;9.928;2024-02-14T10:01:49;13.90;;;7.88;;
80201;SDS011;69521;54.454;9.928;2024-02-14T10:04:16;12.10;;;7.28;;
80201;SDS011;69521;54.454;9.928;2024-02-14T10:06:43;12.77;;;7.50;;
80201;SDS011;69521;54.454;9.928;2024-02-14T10:09:08;13.60;;;7.72;;
80201;SDS011;69521;54.454;9.928;2024-02-14T10:11:35;12.02;;;7.47;;
80201;SDS011;69521;54.454;9.928;2024-02-14T10:14:01;13.15;;;7.70;;
80201;SDS011;69521;54.454;9.928;2024-02-14T10:16:28;13.82;;;7.75;;
80201;SDS011;69521;54.454;9.928;2024-02-14T10:18:54;13.30;;;7.90;;
80201;SDS011;69521;54.454;9.928;2024-02-14T10:21:19;13.30;;;7.78;;
80201;SDS011;69521;54.454;9.928;2024-02-14T10:23:46;13.60;;;7.97;;
80201;SDS011;69521;54.454;9.928;2024-02-14T10:26:13;11.75;;;7.85;;
80201;SDS011;69521;54.454;9.928;2024-02-14T10:28:42;12.18;;;7.60;;
80201;SDS011;69521;54.454;9.928;2024-02-14T10:31:09;13.98;;;6.88;;
80201;SDS011;69521;54.454;9.928;2024-02-14T10:33:35;14.55;;;8.30;;
80201;SDS011;69521;54.454;9.928;2024-02-14T10:36:01;13.73;;;7.53;;
80201;SDS011;69521;54.454;9.928;2024-02-14T10:38:28;14.68;;;7.95;;
80201;SDS011;69521;54.454;9.928;2024-02-14T10:40:57;15.30;;;8.52;;
80201;SDS011;69521;54.454;9.928;2024-02-14T10:43:25;14.95;;;8.20;;
80201;SDS011;69521;54.454;9.928;2024-02-14T10:45:51;18.60;;;9.27;;
80201;SDS011;69521;54.454;9.928;2024-02-14T10:48:18;15.15;;;8.05;;
80201;SDS011;69521;54.454;9.928;2024-02-14T10:50:50;14.38;;;7.88;;
80201;SDS011;69521;54.454;9.928;2024-02-14T10:53:17;17.20;;;8.02;;
80201;SDS011;69521;54.454;9.928;2024-02-14T10:55:47;14.73;;;8.18;;
80201;SDS011;69521;54.454;9.928;2024-02-14T10:58:14;17.13;;;8.52;;
80201;SDS011;69521;54.454;9.928;2024-02-14T11:00:41;17.25;;;8.55;;
80201;SDS011;69521;54.454;9.928;2024-02-14T11:03:08;16.58;;;8.93;;
80201;SDS011;69521;54.454;9.928;2024-02-14T11:05:44;15.98;;;8.20;;
80201;SDS011;69521;54.454;9.928;2024-02-14T11:08:13;13.88;;;7.38;;
80201;SDS011;69521;54.454;9.928;2024-02-14T11:10:54;15.27;;;7.95;;
80201;SDS011;69521;54.454;9.928;2024-02-14T11:13:27;10.40;;;6.57;;
80201;SDS011;69521;54.454;9.928;2024-02-14T11:15:54;11.07;;;7.18;;
80201;SDS011;69521;54.454;9.928;2024-02-14T11:18:29;11.82;;;7.70;;
80201;SDS011;69521;54.454;9.928;2024-02-14T11:20:55;16.92;;;7.55;;
80201;SDS011;69521;54.454;9.928;2024-02-14T11:23:24;14.60;;;7.45;;
80201;SDS011;69521;54.454;9.928;2024-02-14T11:25:58;15.13;;;8.32;;
80201;SDS011;69521;54.454;9.928;2024-02-14T11:28:24;15.07;;;8.68;;
80201;SDS011;69521;54.454;9.928;2024-02-14T11:30:51;14.25;;;7.90;;
80201;SDS011;69521;54.454;9.928;2024-02-14T11:33:17;17.83;;;8.32;;
80201;SDS011;69521;54.454;9.928;2024-02-14T11:35:47;15.98;;;8.88;;
80201;SDS011;69521;54.454;9.928;2024-02-14T11:38:16;14.73;;;8.35;;
80201;SDS011;69521;54.454;9.928;2024-02-14T11:40:42;13.65;;;8.13;;
80201;SDS011;69521;54.454;9.928;2024-02-14T11:43:14;13.55;;;8.35;;
80201;SDS011;69521;54.454;9.928;2024-02-14T11:45:44;15.23;;;8.00;;
80201;SDS011;69521;54.454;9.928;2024-02-14T11:48:11;15.52;;;7.82;;
80201;SDS011;69521;54.454;9.928;2024-02-14T11:50:40;14.50;;;7.53;;
80201;SDS011;69521;54.454;9.928;2024-02-14T11:53:08;13.98;;;7.90;;
80201;SDS011;69521;54.454;9.928;2024-02-14T11:55:36;16.60;;;8.10;;
80201;SDS011;69521;54.454;9.928;2024-02-14T11:58:03;14.07;;;8.25;;
80201;SDS011;69521;54.454;9.928;2024-02-14T12:00:32;13.80;;;7.80;;
80201;SDS011;69521;54.454;9.928;2024-02-14T12:02:58;15.63;;;8.15;;
80201;SDS011;69521;54.454;9.928;2024-02-14T12:05:24;16.77;;;8.23;;
80201;SDS011;69521;54.454;9.928;2024-02-14T12:07:49;14.38;;;8.15;;
80201;SDS011;69521;54.454;9.928;2024-02-14T12:10:15;13.18;;;7.20;;
80201;SDS011;69521;54.454;9.928;2024-02-14T12:12:44;15.02;;;8.32;;
80201;SDS011;69521;54.454;9.928;2024-02-14T12:15:10;15.15;;;7.95;;
80201;SDS011;69521;54.454;9.928;2024-02-14T12:17:35;14.77;;;7.80;;
80201;SDS011;69521;54.454;9.928;2024-02-14T12:20:10;13.18;;;7.47;;
80201;SDS011;69521;54.454;9.928;2024-02-14T12:22:38;15.43;;;7.97;;
80201;SDS011;69521;54.454;9.928;2024-02-14T12:25:05;14.30;;;8.10;;
80201;SDS011;69521;54.454;9.928;2024-02-14T12:27:34;13.80;;;7.88;;
80201;SDS011;69521;54.454;9.928;2024-02-14T12:30:02;13.57;;;7.45;;
80201;SDS011;69521;54.454;9.928;2024-02-14T12:32:28;12.07;;;6.78;;
80201;SDS011;69521;54.454;9.928;2024-02-14T12:34:57;14.80;;;8.23;;
80201;SDS011;69521;54.454;9.928;2024-02-14T12:37:23;10.98;;;6.53;;
80201;SDS011;69521;54.454;9.928;2024-02-14T12:39:49;12.73;;;7.13;;
80201;SDS011;69521;54.454;9.928;2024-02-14T12:42:16;10.10;;;6.22;;
80201;SDS011;69521;54.454;9.928;2024-02-14T12:44:43;12.93;;;7.18;;
80201;SDS011;69521;54.454;9.928;2024-02-14T12:47:08;10.50;;;6.10;;
80201;SDS011;69521;54.454;9.928;2024-02-14T12:49:34;11.60;;;6.82;;
80201;SDS011;69521;54.454;9.928;2024-02-14T12:51:59;14.02;;;6.90;;
80201;SDS011;69521;54.454;9.928;2024-02-14T12:54:25;9.23;;;5.75;;
80201;SDS011;69521;54.454;9.928;2024-02-14T12:56:51;10.33;;;5.87;;
80201;SDS011;69521;54.454;9.928;2024-02-14T12:59:17;10.45;;;6.20;;
80201;SDS011;69521;54.454;9.928;2024-02-14T13:01:43;8.68;;;5.57;;
80201;SDS011;69521;54.454;9.928;2024-02-14T13:04:09;10.70;;;5.70;;
80201;SDS011;69521;54.454;9.928;2024-02-14T13:06:34;9.05;;;5.10;;
80201;SDS011;69521;54.454;9.928;2024-02-14T13:09:00;8.50;;;5.25;;
80201;SDS011;69521;54.454;9.928;2024-02-14T13:11:25;8.73;;;4.97;;
80201;SDS011;69521;54.454;9.928;2024-02-14T13:13:51;10.00;;;5.93;;
80201;SDS011;69521;54.454;9.928;2024-02-14T13:16:16;9.90;;;5.03;;
80201;SDS011;69521;54.454;9.928;2024-02-14T13:18:41;7.97;;;5.18;;
80201;SDS011;69521;54.454;9.928;2024-02-14T13:21:07;8.63;;;5.20;;
80201;SDS011;69521;54.454;9.928;2024-02-14T13:23:32;9.33;;;5.27;;
80201;SDS011;69521;54.454;9.928;2024-02-14T13:25:57;8.63;;;5.27;;
80201;SDS011;69521;54.454;9.928;2024-02-14T13:28:23;8.48;;;4.63;;
80201;SDS011;69521;54.454;9.928;2024-02-14T13:30:49;8.57;;;4.85;;
80201;SDS011;69521;54.454;9.928;2024-02-14T13:33:15;8.23;;;4.90;;
80201;SDS011;69521;54.454;9.928;2024-02-14T13:35:40;9.18;;;5.55;;
80201;SDS011;69521;54.454;9.928;2024-02-14T13:38:05;9.07;;;5.30;;
80201;SDS011;69521;54.454;9.928;2024-02-14T13:40:31;7.75;;;4.93;;
80201;SDS011;69521;54.454;9.928;2024-02-14T13:42:57;8.02;;;4.80;;
80201;SDS011;69521;54.454;9.928;2024-02-14T13:45:23;8.05;;;4.95;;
80201;SDS011;69521;54.454;9.928;2024-02-14T13:47:49;8.68;;;5.00;;
80201;SDS011;69521;54.454;9.928;2024-02-14T13:50:15;8.23;;;4.72;;
80201;SDS011;69521;54.454;9.928;2024-02-14T13:52:41;6.88;;;4.50;;
80201;SDS011;69521;54.454;9.928;2024-02-14T13:55:06;7.00;;;4.40;;
80201;SDS011;69521;54.454;9.928;2024-02-14T13:57:33;5.97;;;3.85;;
80201;SDS011;69521;54.454;9.928;2024-02-14T14:00:03;7.45;;;3.95;;
80201;SDS011;69521;54.454;9.928;2024-02-14T14:02:29;9.18;;;4.28;;
80201;SDS011;69521;54.454;9.928;2024-02-14T14:04:54;7.00;;;3.80;;
80201;SDS011;69521;54.454;9.928;2024-02-14T14:07:20;6.07;;;3.60;;
80201;SDS011;69521;54.454;9.928;2024-02-14T14:09:46;4.97;;;2.75;;
80201;SDS011;69521;54.454;9.928;2024-02-14T14:12:12;5.00;;;3.25;;
80201;SDS011;69521;54.454;9.928;2024-02-14T14:14:38;6.65;;;3.40;;
80201;SDS011;69521;54.454;9.928;2024-02-14T14:17:03;7.40;;;3.63;;
80201;SDS011;69521;54.454;9.928;2024-02-14T14:19:30;7.00;;;3.53;;
80201;SDS011;69521;54.454;9.928;2024-02-14T14:21:55;7.10;;;3.70;;
80201;SDS011;69521;54.454;9.928;2024-02-14T14:24:21;7.97;;;3.83;;
80201;SDS011;69521;54.454;9.928;2024-02-14T14:26:46;7.25;;;3.53;;
80201;SDS011;69521;54.454;9.928;2024-02-14T14:29:11;9.27;;;3.83;;
80201;SDS011;69521;54.454;9.928;2024-02-14T14:31:37;7.63;;;3.20;;